createdAt,value
2023-09-29T00:00:42.373Z,101218.25
2023-09-29T00:05:45.633Z,101214.47
2023-09-29T00:10:48.557Z,101209.69
2023-09-29T00:15:52.772Z,101211.19
2023-09-29T00:20:56.035Z,101213.84
2023-09-29T00:25:59.030Z,101203.69
2023-09-29T00:31:03.738Z,101192.34
2023-09-29T00:36:06.953Z,101201.13
2023-09-29T00:41:10.689Z,101197.47
2023-09-29T00:46:15.878Z,101192.66
2023-09-29T00:51:27.824Z,101188.09
2023-09-29T00:56:32.506Z,101181.50
2023-09-29T01:01:37.030Z,101180.78
2023-09-29T01:06:40.328Z,101180.59
2023-09-29T01:11:44.631Z,101175.59
2023-09-29T01:16:49.749Z,101181.16
2023-09-29T01:21:53.740Z,101175.53
2023-09-29T01:27:03.139Z,101176.16
2023-09-29T01:32:06.264Z,101177.50
2023-09-29T01:37:09.421Z,101179.56
2023-09-29T01:42:13.817Z,101172.22
2023-09-29T01:47:16.745Z,101178.34
2023-09-29T01:52:19.607Z,101181.44
2023-09-29T01:57:23.762Z,101180.81
2023-09-29T02:02:26.841Z,101177.41
2023-09-29T02:07:30.681Z,101166.94
2023-09-29T02:12:35.043Z,101165.25
2023-09-29T02:17:38.100Z,101157.06
2023-09-29T02:22:41.117Z,101142.66
2023-09-29T02:27:45.776Z,101142.41
2023-09-29T02:32:48.790Z,101135.34
2023-09-29T02:37:53.484Z,101139.31
2023-09-29T02:42:58.977Z,101135.97
2023-09-29T02:48:03.243Z,101138.84
2023-09-29T02:53:06.809Z,101134.50
2023-09-29T02:58:11.127Z,101134.91
2023-09-29T03:03:14.111Z,101145.91
2023-09-29T03:08:16.927Z,101137.69
2023-09-29T03:18:23.983Z,101122.72
2023-09-29T03:23:28.109Z,101119.38
2023-09-29T03:28:33.527Z,101114.41
2023-09-29T03:33:36.939Z,101110.34
2023-09-29T03:38:39.883Z,101105.50
2023-09-29T03:43:44.173Z,101104.84
2023-09-29T03:48:48.418Z,101102.97
2023-09-29T03:53:51.582Z,101101.63
2023-09-29T03:58:56.549Z,101107.94
2023-09-29T04:04:02.448Z,101093.34
2023-09-29T04:09:06.074Z,101087.69
2023-09-29T04:14:20.381Z,101089.94
2023-09-29T04:19:30.924Z,101086.84
2023-09-29T04:24:33.731Z,101076.19
2023-09-29T04:29:38.157Z,101078.78
2023-09-29T04:34:41.716Z,101076.38
2023-09-29T04:39:44.507Z,101069.19
2023-09-29T04:44:48.743Z,101075.13
2023-09-29T04:49:51.679Z,101074.09
2023-09-29T05:01:00.674Z,101063.63
2023-09-29T05:06:03.666Z,101057.28
2023-09-29T05:11:06.459Z,101059.22
2023-09-29T05:16:10.643Z,101059.19
2023-09-29T05:21:13.712Z,101051.34
2023-09-29T05:26:16.494Z,101052.94
2023-09-29T05:31:20.690Z,101065.59
2023-09-29T05:36:24.064Z,101070.34
2023-09-29T05:41:27.408Z,101049.03
2023-09-29T05:46:31.831Z,101037.63
2023-09-29T05:51:34.598Z,101046.13
2023-09-29T05:56:37.425Z,101052.00
2023-09-29T06:01:41.734Z,101048.19
2023-09-29T06:06:44.676Z,101054.41
2023-09-29T06:11:48.940Z,101045.47
2023-09-29T06:16:54.500Z,101042.75
2023-09-29T06:21:57.330Z,101033.53
2023-09-29T06:27:00.347Z,101045.78
2023-09-29T06:32:04.602Z,101050.34
2023-09-29T06:37:07.968Z,101028.94
2023-09-29T06:42:10.848Z,101028.50
2023-09-29T06:47:15.639Z,101036.13
2023-09-29T06:52:18.541Z,101046.06
2023-09-29T06:57:23.231Z,101039.34
2023-09-29T07:02:27.608Z,101038.44
2023-09-29T07:07:30.731Z,101040.53
2023-09-29T07:12:33.887Z,101021.72
2023-09-29T07:17:38.206Z,101017.50
2023-09-29T07:22:41.134Z,101029.13
2023-09-29T07:27:44.077Z,101028.34
2023-09-29T07:32:48.427Z,101038.91
2023-09-29T07:37:51.719Z,101053.59
2023-09-29T07:42:54.584Z,101073.00
2023-09-29T07:47:58.868Z,101064.09
2023-09-29T07:53:02.128Z,101074.72
2023-09-29T07:58:05.132Z,101073.13
2023-09-29T08:03:09.490Z,101065.25
2023-09-29T08:08:12.441Z,101060.41
2023-09-29T08:13:15.299Z,101050.88
2023-09-29T08:18:19.669Z,101062.72
2023-09-29T08:23:23.324Z,101064.34
2023-09-29T08:28:26.208Z,101054.38
2023-09-29T08:33:44.127Z,101042.28
2023-09-29T08:38:51.289Z,101057.88
2023-09-29T08:44:06.335Z,101061.63
2023-09-29T08:49:13.484Z,101052.84
2023-09-29T08:54:16.715Z,101055.41
2023-09-29T08:59:19.796Z,101046.13
2023-09-29T09:04:25.975Z,101049.97
2023-09-29T09:09:28.912Z,101048.16
2023-09-29T09:14:41.038Z,101060.63
2023-09-29T09:19:48.689Z,101067.13
2023-09-29T09:24:52.639Z,101055.13
2023-09-29T09:29:55.753Z,101048.88
2023-09-29T09:35:00.171Z,101030.25
2023-09-29T09:40:06.483Z,101019.00
2023-09-29T09:45:10.728Z,101027.84
2023-09-29T09:50:15.791Z,101027.41
2023-09-29T09:55:20.727Z,101042.94
2023-09-29T10:00:25.749Z,101026.75
2023-09-29T10:05:32.228Z,101024.75
2023-09-29T10:10:36.570Z,101020.03
2023-09-29T10:15:40.408Z,101008.31
2023-09-29T10:20:45.000Z,101006.69
2023-09-29T10:25:59.167Z,100996.41
2023-09-29T10:31:09.055Z,101003.38
2023-09-29T10:36:16.157Z,101002.78
2023-09-29T10:41:34.199Z,101007.63
2023-09-29T10:46:38.049Z,100999.78
2023-09-29T10:51:42.762Z,100985.41
2023-09-29T10:56:49.227Z,100971.59
2023-09-29T11:01:52.678Z,100975.56
2023-09-29T11:06:57.000Z,100982.47
2023-09-29T11:12:00.071Z,100976.34
2023-09-29T11:17:03.297Z,100967.91
2023-09-29T11:22:07.620Z,100972.88
2023-09-29T11:27:11.259Z,100966.47
2023-09-29T11:32:14.400Z,100963.28
2023-09-29T11:37:20.147Z,100960.13
2023-09-29T11:42:24.525Z,100942.28
2023-09-29T11:47:27.671Z,100941.56
2023-09-29T11:52:33.402Z,100936.31
2023-09-29T11:57:38.398Z,100921.09
2023-09-29T12:02:41.836Z,100922.28
2023-09-29T12:07:46.109Z,100910.03
2023-09-29T12:12:48.941Z,100914.53
2023-09-29T12:17:53.066Z,100914.28
2023-09-29T12:23:00.231Z,100897.84
2023-09-29T12:28:04.637Z,100908.44
2023-09-29T12:33:07.497Z,100895.88
2023-09-29T12:38:11.774Z,100892.50
2023-09-29T12:43:15.628Z,100888.09
2023-09-29T12:48:18.626Z,100891.63
2023-09-29T12:53:22.936Z,100892.53
2023-09-29T12:58:25.727Z,100883.66
2023-09-29T13:03:29.153Z,100880.13
2023-09-29T13:08:34.360Z,100874.78
2023-09-29T13:13:37.167Z,100884.47
2023-09-29T13:18:40.370Z,100886.31
2023-09-29T13:23:45.156Z,100889.84
2023-09-29T13:28:48.053Z,100896.06
2023-09-29T13:33:51.955Z,100887.22
2023-09-29T13:38:56.247Z,100897.81
2023-09-29T13:43:59.227Z,100895.97
2023-09-29T13:49:02.078Z,100896.94
2023-09-29T13:54:06.753Z,100892.47
2023-09-29T13:59:09.592Z,100889.84
2023-09-29T14:04:12.468Z,100892.50
2023-09-29T14:09:17.869Z,100880.06
2023-09-29T14:14:21.649Z,100882.63
2023-09-29T14:19:24.675Z,100880.91
2023-09-29T14:24:28.921Z,100885.31
2023-09-29T14:29:32.027Z,100884.44
2023-09-29T14:34:35.975Z,100868.59
2023-09-29T14:39:40.147Z,100878.25
2023-09-29T14:44:42.953Z,100876.50
2023-09-29T14:49:45.744Z,100873.59
2023-09-29T14:54:49.956Z,100874.66
2023-09-29T14:59:52.934Z,100870.22
2023-09-29T15:04:57.332Z,100880.00
2023-09-29T15:10:01.978Z,100880.84
2023-09-29T15:15:05.580Z,100892.16
2023-09-29T15:20:09.623Z,100897.44
2023-09-29T15:25:17.202Z,100887.63
2023-09-29T15:30:23.194Z,100882.19
2023-09-29T15:35:26.272Z,100889.06
2023-09-29T15:40:30.496Z,100895.31
2023-09-29T15:45:33.435Z,100901.47
2023-09-29T15:50:36.387Z,100904.78
2023-09-29T15:55:43.750Z,100915.56
2023-09-29T16:00:47.148Z,100919.72
2023-09-29T16:05:50.163Z,100931.94
2023-09-29T16:10:54.376Z,100931.97
2023-09-29T16:15:57.299Z,100937.91
2023-09-29T16:21:00.254Z,100945.06
2023-09-29T16:26:04.710Z,100959.41
2023-09-29T16:31:12.793Z,100975.81
2023-09-29T16:36:20.961Z,100987.63
2023-09-29T16:41:26.073Z,101006.38
2023-09-29T16:46:29.014Z,101026.56
2023-09-29T16:51:33.143Z,101045.09
2023-09-29T16:56:37.691Z,101084.59
2023-09-29T17:01:40.608Z,101099.41
2023-09-29T17:06:43.936Z,101119.50
2023-09-29T17:11:48.069Z,101138.47
2023-09-29T17:16:51.012Z,101154.13
2023-09-29T17:21:53.927Z,101168.56
2023-09-29T17:27:03.630Z,101173.97
2023-09-29T17:32:06.756Z,101204.44
2023-09-29T17:37:10.074Z,101216.22
2023-09-29T17:42:14.274Z,101226.13
2023-09-29T17:47:17.229Z,101247.47
2023-09-29T17:52:20.272Z,101256.31
2023-09-29T17:57:24.553Z,101259.06
2023-09-29T18:02:33.476Z,101267.28
2023-09-29T18:07:36.508Z,101276.16
2023-09-29T18:12:40.770Z,101285.94
2023-09-29T18:17:43.694Z,101290.47
2023-09-29T18:22:46.560Z,101313.25
2023-09-29T18:27:50.886Z,101322.47
2023-09-29T18:32:53.756Z,101341.22
2023-09-29T18:37:56.608Z,101355.38
2023-09-29T18:43:01.913Z,101354.44
2023-09-29T18:48:05.255Z,101360.78
2023-09-29T18:53:08.411Z,101371.25
2023-09-29T18:58:12.642Z,101378.94
2023-09-29T19:03:15.517Z,101387.47
2023-09-29T19:08:20.003Z,101392.03
2023-09-29T19:13:24.565Z,101407.59
2023-09-29T19:18:27.647Z,101421.88
2023-09-29T19:23:30.590Z,101435.59
2023-09-29T19:28:34.886Z,101447.84
2023-09-29T19:33:37.790Z,101467.09
2023-09-29T19:38:40.636Z,101475.50
2023-09-29T19:43:45.053Z,101478.97
2023-09-29T19:48:50.191Z,101486.72
2023-09-29T19:53:55.688Z,101496.31
2023-09-29T19:59:00.476Z,101514.13
2023-09-29T20:04:04.822Z,101517.34
2023-09-29T20:09:07.896Z,101507.25
2023-09-29T20:14:12.400Z,101527.50
2023-09-29T20:19:15.214Z,101534.09
2023-09-29T20:24:18.042Z,101528.13
2023-09-29T20:29:23.309Z,101540.63
2023-09-29T20:34:26.193Z,101544.28
2023-09-29T20:39:29.242Z,101551.59
2023-09-29T20:44:33.460Z,101560.28
2023-09-29T20:49:36.379Z,101561.97
2023-09-29T20:54:39.361Z,101567.88
2023-09-29T20:59:44.113Z,101577.81
2023-09-29T21:04:46.996Z,101574.91
2023-09-29T21:09:50.718Z,101574.22
2023-09-29T21:14:55.992Z,101594.78
2023-09-29T21:20:01.292Z,101590.38
2023-09-29T21:25:04.467Z,101600.34
2023-09-29T21:30:10.524Z,101607.75
2023-09-29T21:35:14.422Z,101614.78
2023-09-29T21:40:19.662Z,101612.97
2023-09-29T21:45:23.830Z,101625.34
2023-09-29T21:50:27.072Z,101629.16
2023-09-29T21:55:30.028Z,101635.06
2023-09-29T22:00:39.855Z,101637.25
2023-09-29T22:05:43.142Z,101649.38
2023-09-29T22:10:45.939Z,101657.25
2023-09-29T22:15:50.742Z,101663.31
2023-09-29T22:20:53.663Z,101667.75
2023-09-29T22:25:56.525Z,101678.94
2023-09-29T22:31:00.654Z,101672.56
2023-09-29T22:36:03.995Z,101698.31
2023-09-29T22:41:07.286Z,101687.16
2023-09-29T22:46:11.653Z,101679.97
2023-09-29T22:51:14.526Z,101686.19
2023-09-29T22:56:18.793Z,101683.00
2023-09-29T23:01:22.964Z,101693.81
2023-09-29T23:06:25.786Z,101701.75
2023-09-29T23:11:28.593Z,101703.31
2023-09-29T23:16:32.992Z,101705.34
2023-09-29T23:21:35.891Z,101711.81
2023-09-29T23:26:39.167Z,101707.47
2023-09-29T23:31:43.949Z,101705.28
2023-09-29T23:36:47.356Z,101716.66
2023-09-29T23:41:50.265Z,101720.88
2023-09-29T23:46:54.385Z,101723.13
2023-09-29T23:51:58.827Z,101722.03
2023-09-29T23:57:01.952Z,101736.09
